Time;durP1;ratioP1;P1;durP2;ratioP2;P2;SDS_P1;SDS_P2;PMS_P1;PMS_P2;Temp;Humidity;BMP_temperature;BMP_pressure;BME280_temperature;BME280_humidity;BME280_pressure;Samples;Min_cycle;Max_cycle;Signal;HPM_P1;HPM_P2
2022/09/27 00:01:05;;;;;;;11.55;7.93;;;;;;;13.14;55.38;99307.00;7387429;19;20006;-57
2022/09/27 00:03:30;;;;;;;11.13;7.97;;;;;;;13.14;55.50;99307.81;7391359;19;19998;-57
2022/09/27 00:06:04;;;;;;;11.40;8.40;;;;;;;13.22;55.39;99308.53;7391702;19;20002;-57
2022/09/27 00:08:34;;;;;;;12.15;8.80;;;;;;;13.18;55.61;99313.25;7395108;19;19999;-57
2022/09/27 00:11:01;;;;;;;11.68;8.65;;;;;;;13.20;55.65;99310.13;7388734;19;20015;-57
2022/09/27 00:13:28;;;;;;;13.30;9.13;;;;;;;13.23;55.64;99304.66;7391081;19;20079;-57
2022/09/27 00:16:04;;;;;;;11.98;8.63;;;;;;;13.26;55.51;99312.06;7391252;19;19995;-57
2022/09/27 00:18:30;;;;;;;13.40;9.50;;;;;;;13.21;55.54;99317.16;7364411;19;20055;-57
2022/09/27 00:20:56;;;;;;;15.27;9.63;;;;;;;13.21;55.43;99306.19;7388439;19;20002;-57
2022/09/27 00:23:21;;;;;;;16.08;10.38;;;;;;;13.18;55.39;99317.97;7388403;19;20019;-57
2022/09/27 00:25:55;;;;;;;14.80;10.30;;;;;;;13.13;55.71;99308.19;7391262;19;20050;-57
2022/09/27 00:28:21;;;;;;;14.25;10.48;;;;;;;13.20;55.66;99296.44;7390509;19;20022;-57
2022/09/27 00:30:46;;;;;;;15.45;10.60;;;;;;;13.17;55.60;99295.25;7389804;19;20042;-58
2022/09/27 00:33:12;;;;;;;17.02;11.68;;;;;;;13.11;55.71;99302.34;7390453;19;20023;-57
2022/09/27 00:35:37;;;;;;;15.40;10.10;;;;;;;13.08;55.93;99292.16;7390675;19;19998;-57
2022/09/27 00:38:02;;;;;;;15.45;10.00;;;;;;;13.13;55.78;99300.75;7386684;19;19998;-57
2022/09/27 00:40:28;;;;;;;18.38;11.43;;;;;;;13.19;55.70;99294.88;7388964;19;20413;-57
2022/09/27 00:42:53;;;;;;;19.25;11.73;;;;;;;13.21;55.65;99307.00;7390620;19;20012;-57
2022/09/27 00:45:19;;;;;;;17.92;11.73;;;;;;;13.18;55.70;99299.56;7388879;19;20025;-57
2022/09/27 00:48:05;;;;;;;16.95;10.85;;;;;;;13.18;55.68;99296.06;7388143;19;19995;-57
2022/09/27 00:50:39;;;;;;;19.02;11.20;;;;;;;13.12;55.80;99295.66;7388777;19;20036;-57
2022/09/27 00:53:17;;;;;;;17.27;11.82;;;;;;;13.18;55.88;99298.78;7396819;19;19999;-57
2022/09/27 00:55:50;;;;;;;17.52;10.93;;;;;;;13.19;55.70;99292.13;7397166;19;20394;-57
2022/09/27 00:58:18;;;;;;;17.95;11.05;;;;;;;13.20;55.78;99288.22;7395521;19;20006;-58
2022/09/27 01:00:50;;;;;;;18.05;10.57;;;;;;;13.12;55.56;99281.97;7394380;19;20031;-57
2022/09/27 01:03:25;;;;;;;19.73;11.70;;;;;;;13.12;55.88;99290.19;7397592;19;20002;-57
2022/09/27 01:05:51;;;;;;;18.52;11.10;;;;;;;13.09;55.85;99288.22;7397659;19;20022;-57
2022/09/27 01:08:16;;;;;;;19.58;12.02;;;;;;;13.08;55.87;99279.25;7396375;19;20054;-57
2022/09/27 01:10:56;;;;;;;19.58;11.15;;;;;;;13.07;55.84;99283.16;7395013;19;20016;-57
2022/09/27 01:13:34;;;;;;;18.85;10.98;;;;;;;12.99;55.95;99286.31;7396868;19;20002;-58
2022/09/27 01:16:34;;;;;;;19.58;10.98;;;;;;;13.06;56.06;99283.53;7394709;19;20006;-57
2022/09/27 01:19:14;;;;;;;17.60;10.15;;;;;;;12.96;56.22;99293.38;7394716;19;20003;-58
2022/09/27 01:22:21;;;;;;;18.65;10.10;;;;;;;13.08;55.61;99289.44;7393569;19;20006;-58
2022/09/27 01:24:57;;;;;;;17.27;9.52;;;;;;;13.03;55.80;99287.09;7392335;19;20006;-58
2022/09/27 01:27:44;;;;;;;18.40;9.25;;;;;;;13.04;55.64;99286.69;7391858;19;20003;-58
2022/09/27 01:30:38;;;;;;;20.75;10.23;;;;;;;13.09;55.37;99282.75;7394424;19;20003;-58
2022/09/27 01:33:15;;;;;;;18.98;8.82;;;;;;;13.10;55.28;99279.63;7395186;19;20019;-57
2022/09/27 01:36:04;;;;;;;24.77;11.02;;;;;;;12.94;55.50;99287.47;7396157;19;20006;-57
2022/09/27 01:39:00;;;;;;;22.50;11.15;;;;;;;13.06;55.22;99283.53;7391891;19;19999;-57
2022/09/27 01:41:35;;;;;;;21.45;11.27;;;;;;;13.08;55.17;99281.22;7393544;19;20014;-57
2022/09/27 01:44:12;;;;;;;22.15;10.93;;;;;;;13.07;55.22;99280.41;7395396;19;20014;-57
2022/09/27 01:46:43;;;;;;;20.45;10.02;;;;;;;13.00;55.34;99285.13;7395759;19;20011;-57
2022/09/27 01:49:15;;;;;;;19.17;9.13;;;;;;;12.94;55.21;99277.31;7395067;19;20006;-57
2022/09/27 01:51:46;;;;;;;17.88;8.57;;;;;;;12.96;55.24;99287.88;7391270;19;19999;-58
2022/09/27 01:54:17;;;;;;;15.50;6.68;;;;;;;12.91;55.16;99283.59;7394864;19;20006;-57
2022/09/27 01:56:56;;;;;;;13.90;6.68;;;;;;;12.91;55.27;99282.81;7394775;19;19998;-57
2022/09/27 01:59:29;;;;;;;16.20;6.65;;;;;;;12.86;55.03;99275.75;7396755;19;20002;-58
2022/09/27 02:01:59;;;;;;;15.15;5.95;;;;;;;12.73;55.30;99285.53;7392548;19;20003;-58
2022/09/27 02:04:32;;;;;;;16.67;5.90;;;;;;;12.78;55.35;99282.41;7393565;19;20030;-57
2022/09/27 02:07:09;;;;;;;12.07;5.32;;;;;;;12.90;54.62;99282.00;7393489;19;20485;-57
2022/09/27 02:09:44;;;;;;;13.52;5.38;;;;;;;12.95;54.79;99278.09;7383853;19;20035;-58
2022/09/27 02:12:13;;;;;;;12.68;5.60;;;;;;;13.00;54.53;99277.69;7390372;19;20011;-57
2022/09/27 02:14:47;;;;;;;13.60;5.38;;;;;;;13.05;54.37;99277.28;7394400;19;20002;-57
2022/09/27 02:17:22;;;;;;;12.75;5.05;;;;;;;12.98;54.60;99277.31;7392416;19;20510;-57
2022/09/27 02:20:13;;;;;;;14.77;6.28;;;;;;;12.84;54.93;99271.81;7392662;19;20038;-57
2022/09/27 02:22:46;;;;;;;15.95;7.00;;;;;;;12.82;55.04;99274.94;7394511;19;19995;-57
2022/09/27 02:25:24;;;;;;;17.73;6.90;;;;;;;12.78;54.90;99279.66;7394152;19;20003;-58
2022/09/27 02:27:53;;;;;;;14.73;7.22;;;;;;;12.77;54.87;99289.84;7395076;19;20026;-57
2022/09/27 02:30:18;;;;;;;15.10;7.03;;;;;;;12.73;54.95;99286.31;7391644;19;19990;-57
2022/09/27 02:32:44;;;;;;;15.55;6.30;;;;;;;12.62;55.33;99287.50;7393791;19;20074;-57
2022/09/27 02:35:28;;;;;;;19.27;6.47;;;;;;;12.72;54.92;99289.44;7393939;19;20021;-57
2022/09/27 02:37:55;;;;;;;;;;;;;;;12.68;54.78;99278.50;7393753;19;20002;-57
2022/09/27 02:40:21;;;;;;;21.85;7.65;;;;;;;12.67;54.94;99279.66;7395112;19;19907;-57
2022/09/27 02:42:47;;;;;;;13.52;5.72;;;;;;;12.58;55.19;99282.81;7391147;19;20465;-57
2022/09/27 02:45:16;;;;;;;12.60;4.22;;;;;;;12.66;54.92;99277.31;7393459;19;20006;-57
2022/09/27 02:47:50;;;;;;;12.52;4.40;;;;;;;12.78;54.51;99291.38;7391479;19;20369;-57
2022/09/27 02:50:32;;;;;;;12.10;3.40;;;;;;;12.79;54.67;99278.47;7392256;19;20469;-58
2022/09/27 02:53:10;;;;;;;6.47;2.60;;;;;;;12.77;54.71;99278.09;7392976;19;19995;-57
2022/09/27 02:55:55;;;;;;;7.97;2.60;;;;;;;12.64;54.86;99275.00;7393173;19;20026;-57
2022/09/27 02:58:30;;;;;;;8.68;2.15;;;;;;;12.66;54.69;99285.53;7391174;19;20004;-57
2022/09/27 03:01:06;;;;;;;7.57;2.03;;;;;;;12.73;54.41;99277.31;7390207;19;20013;-57
2022/09/27 03:03:38;;;;;;;8.55;2.33;;;;;;;12.71;54.61;99274.22;7393176;19;20070;-57
2022/09/27 03:06:09;;;;;;;8.45;2.03;;;;;;;12.74;54.84;99278.88;7392710;19;20003;-57
2022/09/27 03:08:42;;;;;;;5.18;1.38;;;;;;;12.59;55.10;99273.44;7392675;19;19998;-57
2022/09/27 03:11:08;;;;;;;4.95;1.60;;;;;;;12.57;55.15;99275.78;7390587;19;20019;-57
2022/09/27 03:13:37;;;;;;;3.50;1.63;;;;;;;12.47;55.10;99276.53;7393632;19;20333;-57
2022/09/27 03:16:04;;;;;;;6.85;2.25;;;;;;;12.36;55.58;99275.78;7389494;19;20542;-57
2022/09/27 03:18:31;;;;;;;6.30;1.50;;;;;;;12.51;55.15;99282.81;7391835;19;20029;-57
2022/09/27 03:20:56;;;;;;;5.93;1.33;;;;;;;12.51;55.26;99282.81;7389688;19;20006;-57
2022/09/27 03:23:22;;;;;;;4.57;1.20;;;;;;;12.53;54.82;99279.69;7393268;19;20016;-57
2022/09/27 03:25:48;;;;;;;5.40;1.30;;;;;;;12.58;54.86;99277.31;7390208;19;20010;-57
2022/09/27 03:28:15;;;;;;;3.80;1.25;;;;;;;12.55;54.87;99280.84;7392958;19;20100;-57
2022/09/27 03:30:41;;;;;;;4.78;1.25;;;;;;;12.45;55.26;99278.91;7392549;19;20040;-57
2022/09/27 03:33:08;;;;;;;3.22;1.05;;;;;;;12.51;54.79;99280.06;7392483;19;19991;-57
2022/09/27 03:35:34;;;;;;;3.38;0.93;;;;;;;12.43;54.86;99281.25;7392376;19;19995;-58
2022/09/27 03:38:00;;;;;;;4.22;0.90;;;;;;;12.45;54.96;99278.13;7389814;19;20588;-57
2022/09/27 03:40:25;;;;;;;4.90;1.10;;;;;;;12.27;55.57;99278.13;7390707;19;19999;-58
2022/09/27 03:42:51;;;;;;;3.42;1.10;;;;;;;12.43;55.15;99275.78;7391627;19;20003;-58
2022/09/27 03:45:17;;;;;;;3.78;1.15;;;;;;;12.53;54.91;99268.75;7391105;19;19999;-57
2022/09/27 03:47:42;;;;;;;7.88;1.50;;;;;;;12.55;54.85;99278.09;7391628;19;20010;-57
2022/09/27 03:50:10;;;;;;;5.35;1.10;;;;;;;12.51;54.77;99274.59;7391949;19;20002;-60
2022/09/27 03:52:36;;;;;;;3.72;1.10;;;;;;;12.48;54.97;99275.38;7391256;19;20010;-58
2022/09/27 03:55:02;;;;;;;5.45;1.30;;;;;;;12.44;54.90;99269.13;7391984;19;20034;-58
2022/09/27 03:57:29;;;;;;;2.75;1.20;;;;;;;12.28;55.32;99279.69;7390722;19;20772;-57
2022/09/27 03:59:55;;;;;;;7.80;1.65;;;;;;;12.34;55.21;99276.16;7391178;19;19998;-57
2022/09/27 04:02:21;;;;;;;7.57;1.67;;;;;;;12.44;55.20;99280.09;7389078;19;20009;-57
2022/09/27 04:04:46;;;;;;;7.45;1.70;;;;;;;12.47;54.91;99284.75;7390921;19;20533;-57
2022/09/27 04:07:12;;;;;;;7.10;1.80;;;;;;;12.52;54.91;99284.34;7391136;19;20054;-57
2022/09/27 04:09:38;;;;;;;7.55;2.00;;;;;;;12.46;54.80;99285.94;7391438;19;20525;-57
2022/09/27 04:12:03;;;;;;;8.07;2.35;;;;;;;12.43;54.90;99286.72;7388642;19;20014;-57
2022/09/27 04:14:29;;;;;;;6.55;2.20;;;;;;;12.44;55.14;99282.81;7390384;19;20036;-57
2022/09/27 04:16:54;;;;;;;9.07;2.85;;;;;;;12.39;55.03;99284.00;7389759;19;20006;-57
2022/09/27 04:19:20;;;;;;;7.15;3.10;;;;;;;12.29;55.43;99289.44;7393627;19;20011;-57
2022/09/27 04:21:46;;;;;;;7.57;2.70;;;;;;;12.45;55.03;99273.41;7389068;19;20003;-57
2022/09/27 04:24:12;;;;;;;10.15;3.22;;;;;;;12.51;54.78;99282.81;7390828;19;20371;-58
2022/09/27 04:26:38;;;;;;;8.98;3.22;;;;;;;12.34;55.16;99281.66;7392133;19;20030;-57
2022/09/27 04:29:04;;;;;;;9.00;3.50;;;;;;;12.38;55.39;99285.16;7398181;19;20338;-57
2022/09/27 04:31:30;;;;;;;10.52;3.28;;;;;;;12.44;55.04;99282.81;7394829;19;19994;-57
2022/09/27 04:33:55;;;;;;;9.48;3.45;;;;;;;12.39;55.13;99289.47;7399208;19;20006;-57
2022/09/27 04:36:25;;;;;;;10.50;3.92;;;;;;;12.47;54.81;99281.25;7401314;19;20023;-57
2022/09/27 04:38:52;;;;;;;8.30;3.03;;;;;;;12.45;55.05;99287.09;7394710;19;20018;-57
2022/09/27 04:41:20;;;;;;;10.18;3.95;;;;;;;12.44;55.16;99287.50;7395681;19;20002;-57
2022/09/27 04:43:53;;;;;;;8.98;3.63;;;;;;;12.47;55.09;99284.75;7396013;19;20058;-57
2022/09/27 04:46:20;;;;;;;8.57;3.55;;;;;;;12.55;54.98;99283.59;7397789;19;20011;-57
2022/09/27 04:48:46;;;;;;;7.15;3.10;;;;;;;12.43;55.16;99286.72;7397289;19;20009;-57
2022/09/27 04:51:15;;;;;;;6.72;3.22;;;;;;;12.53;55.14;99288.66;7395920;19;19998;-57
2022/09/27 04:53:40;;;;;;;7.35;2.90;;;;;;;12.50;55.12;99291.41;7395148;19;20414;-57
2022/09/27 04:56:06;;;;;;;7.88;2.92;;;;;;;12.51;55.06;99290.25;7396401;19;20002;-57
2022/09/27 04:58:33;;;;;;;7.60;2.72;;;;;;;12.50;55.16;99292.19;7398186;19;20026;-57
2022/09/27 05:01:01;;;;;;;6.72;2.50;;;;;;;12.46;55.08;99296.88;7395740;19;20002;-57
2022/09/27 05:03:27;;;;;;;8.45;2.67;;;;;;;12.48;54.97;99293.75;7396100;19;20001;-57
2022/09/27 05:05:53;;;;;;;6.18;2.45;;;;;;;12.35;55.07;99302.34;7397450;19;19995;-57
2022/09/27 05:08:19;;;;;;;5.70;2.28;;;;;;;12.42;55.17;99301.56;7396869;19;20006;-58
2022/09/27 05:10:46;;;;;;;9.15;2.40;;;;;;;12.40;54.93;99306.66;7395882;19;20078;-57
2022/09/27 05:13:12;;;;;;;7.22;2.47;;;;;;;12.31;54.82;99312.50;7394326;19;20014;-57
2022/09/27 05:15:38;;;;;;;8.77;2.80;;;;;;;12.29;54.96;99314.06;7396661;19;20037;-58
2022/09/27 05:18:05;;;;;;;15.05;3.08;;;;;;;12.27;54.81;99316.41;7393948;19;20073;-57
2022/09/27 05:20:31;;;;;;;11.30;3.50;;;;;;;12.27;54.88;99319.16;7396120;19;20030;-57
2022/09/27 05:22:57;;;;;;;9.68;3.30;;;;;;;12.30;54.37;99321.09;7393892;19;20003;-57
2022/09/27 05:25:22;;;;;;;10.32;3.00;;;;;;;12.27;54.71;99327.34;7396017;19;20351;-58
2022/09/27 05:27:49;;;;;;;6.65;2.30;;;;;;;12.27;54.74;99319.16;7394899;19;20023;-57
2022/09/27 05:30:15;;;;;;;6.88;2.47;;;;;;;12.17;55.11;99317.94;7394500;19;20006;-57
2022/09/27 05:32:46;;;;;;;5.72;2.20;;;;;;;12.28;54.54;99317.97;7394835;19;20498;-57
2022/09/27 05:35:11;;;;;;;6.55;2.17;;;;;;;12.27;54.67;99321.88;7394801;19;20002;-57
2022/09/27 05:37:38;;;;;;;7.50;2.00;;;;;;;12.27;54.50;99325.38;7393517;19;20035;-57
2022/09/27 05:40:05;;;;;;;6.80;2.33;;;;;;;12.30;54.44;99329.31;7394829;19;20491;-57
2022/09/27 05:42:31;;;;;;;4.85;2.20;;;;;;;12.26;54.16;99325.78;7395261;19;20346;-57
2022/09/27 05:44:56;;;;;;;7.07;2.20;;;;;;;12.14;54.75;99321.47;7395154;19;20070;-57
2022/09/27 05:47:22;;;;;;;7.60;2.45;;;;;;;12.27;54.37;99321.88;7393767;19;20081;-57
2022/09/27 05:49:47;;;;;;;7.05;2.40;;;;;;;12.32;54.29;99329.69;7395487;19;20058;-58
2022/09/27 05:52:13;;;;;;;5.32;2.53;;;;;;;12.33;54.11;99331.28;7393227;19;20352;-57
2022/09/27 05:54:38;;;;;;;5.75;2.10;;;;;;;12.37;54.15;99323.84;7394499;19;20458;-57
2022/09/27 05:57:06;;;;;;;7.85;2.55;;;;;;;12.30;54.28;99321.09;7393327;19;20019;-57
2022/09/27 05:59:32;;;;;;;5.85;2.50;;;;;;;12.27;54.50;99333.59;7398021;19;19999;-57
2022/09/27 06:01:58;;;;;;;5.97;2.58;;;;;;;12.33;54.11;99336.75;7390710;19;20019;-57
2022/09/27 06:04:23;;;;;;;6.53;2.55;;;;;;;12.33;54.13;99331.28;7394332;19;20010;-58
2022/09/27 06:06:48;;;;;;;5.85;2.65;;;;;;;12.36;53.96;99327.78;7394298;19;20421;-57
2022/09/27 06:09:15;;;;;;;7.40;2.70;;;;;;;12.39;54.14;99340.66;7393147;19;20006;-57
2022/09/27 06:11:44;;;;;;;6.43;2.90;;;;;;;12.33;54.25;99340.25;7392501;19;20007;-57
2022/09/27 06:14:12;;;;;;;8.80;3.55;;;;;;;12.43;54.38;99338.72;7393082;19;20546;-57
2022/09/27 06:16:37;;;;;;;7.68;3.22;;;;;;;12.39;54.05;99338.72;7395203;19;20007;-57
2022/09/27 06:19:03;;;;;;;7.70;2.83;;;;;;;12.43;54.21;99335.19;7390900;19;20327;-57
2022/09/27 06:21:30;;;;;;;7.75;3.00;;;;;;;12.42;54.01;99345.34;7391248;19;20062;-57
2022/09/27 06:23:59;;;;;;;7.43;2.70;;;;;;;12.41;53.83;99338.31;7392653;19;20002;-57
2022/09/27 06:26:28;;;;;;;8.65;3.13;;;;;;;12.43;53.91;99341.44;7394683;19;20022;-57
2022/09/27 06:28:54;;;;;;;10.02;3.13;;;;;;;12.56;53.60;99334.41;7391980;19;20002;-56
2022/09/27 06:31:21;;;;;;;8.93;3.65;;;;;;;12.56;53.40;99339.91;7390951;19;20010;-57
2022/09/27 06:33:49;;;;;;;7.97;3.00;;;;;;;12.35;54.23;99350.81;7393993;19;20006;-57
2022/09/27 06:36:15;;;;;;;8.68;3.05;;;;;;;12.28;54.36;99348.06;7394059;19;20364;-58
2022/09/27 06:38:40;;;;;;;8.35;2.80;;;;;;;12.17;54.23;99350.78;7391645;19;20022;-57
2022/09/27 06:41:08;;;;;;;6.57;2.70;;;;;;;12.22;54.43;99356.66;7394310;19;20007;-58
2022/09/27 06:43:34;;;;;;;10.15;3.10;;;;;;;12.33;54.41;99355.91;7394690;19;20014;-58
2022/09/27 06:46:04;;;;;;;7.90;2.70;;;;;;;12.25;54.46;99357.81;7393366;19;20003;-58
2022/09/27 06:48:31;;;;;;;5.82;2.20;;;;;;;12.37;54.19;99365.69;7394966;19;20002;-58
2022/09/27 06:50:57;;;;;;;4.32;2.10;;;;;;;12.34;54.32;99366.47;7393268;19;19998;-57
2022/09/27 06:53:24;;;;;;;4.53;2.03;;;;;;;12.38;54.16;99364.50;7394646;19;20003;-58
2022/09/27 06:55:50;;;;;;;5.55;1.98;;;;;;;12.30;54.18;99373.09;7393104;19;19995;-57
2022/09/27 07:01:01;;;;;;;5.85;1.70;;;;;;;12.23;54.22;99369.16;7393050;19;20076;-58
2022/09/27 07:03:31;;;;;;;4.25;1.75;;;;;;;12.35;54.06;99378.19;7395000;19;20415;-58
2022/09/27 07:06:01;;;;;;;5.55;1.58;;;;;;;12.41;54.00;99376.63;7395544;19;19987;-58
2022/09/27 07:08:28;;;;;;;5.45;1.80;;;;;;;12.36;53.81;99380.53;7394151;19;20002;-58
2022/09/27 07:10:55;;;;;;;5.78;1.50;;;;;;;12.31;54.13;99382.88;7391832;19;19999;-58
2022/09/27 07:13:21;;;;;;;6.68;1.48;;;;;;;11.97;54.99;99378.47;7392218;19;20049;-58
2022/09/27 07:15:47;;;;;;;5.60;1.35;;;;;;;12.21;54.33;99387.91;7394783;19;19994;-58
2022/09/27 07:18:12;;;;;;;6.60;1.17;;;;;;;12.40;53.50;99386.00;7393263;19;20077;-58
2022/09/27 07:20:38;;;;;;;3.58;1.50;;;;;;;12.48;53.36;99386.81;7394039;19;20003;-58
2022/09/27 07:23:06;;;;;;;6.57;1.60;;;;;;;12.54;53.25;99388.78;7394727;19;20003;-58
2022/09/27 07:25:33;;;;;;;5.35;1.52;;;;;;;12.48;53.27;99398.53;7395026;19;20022;-58
2022/09/27 07:28:04;;;;;;;4.80;1.33;;;;;;;12.47;53.34;99396.94;7393619;19;19999;-58
2022/09/27 07:30:30;;;;;;;3.53;1.30;;;;;;;12.52;53.39;99404.78;7390945;19;20002;-57
2022/09/27 07:32:59;;;;;;;4.25;1.20;;;;;;;12.62;53.00;99405.97;7390723;19;20454;-57
2022/09/27 07:35:26;;;;;;;6.03;1.23;;;;;;;12.57;53.10;99401.69;7392147;19;20002;-57
2022/09/27 07:37:51;;;;;;;4.38;1.40;;;;;;;12.63;52.93;99401.28;7390494;19;20002;-57
2022/09/27 07:40:18;;;;;;;5.07;1.58;;;;;;;12.80;52.66;99411.47;7391123;19;20548;-57
2022/09/27 07:42:44;;;;;;;4.97;1.90;;;;;;;12.86;52.66;99411.84;7390130;19;20023;-57
2022/09/27 07:45:10;;;;;;;6.00;1.92;;;;;;;12.85;52.83;99416.56;7392191;19;20006;-57
2022/09/27 07:47:37;;;;;;;7.03;2.15;;;;;;;12.83;52.97;99418.13;7390586;19;19998;-57
2022/09/27 07:50:09;;;;;;;6.28;2.95;;;;;;;12.78;52.68;99416.56;7391940;19;19998;-57
2022/09/27 07:52:43;;;;;;;7.85;3.03;;;;;;;12.67;52.46;99426.72;7389168;19;20003;-58
2022/09/27 07:55:10;;;;;;;6.28;2.17;;;;;;;12.66;52.68;99416.91;7391280;19;20392;-57
2022/09/27 07:57:37;;;;;;;8.20;2.88;;;;;;;12.63;52.74;99421.22;7390888;19;20009;-57
2022/09/27 08:00:05;;;;;;;8.23;3.00;;;;;;;12.64;52.94;99424.75;7390466;19;20026;-57
2022/09/27 08:02:31;;;;;;;9.85;4.22;;;;;;;12.82;52.57;99424.78;7390342;19;19998;-57
2022/09/27 08:04:58;;;;;;;8.32;3.58;;;;;;;12.82;52.36;99431.03;7389036;19;20085;-57
2022/09/27 08:07:24;;;;;;;6.50;2.72;;;;;;;12.77;52.30;99426.72;7389659;19;19995;-57
2022/09/27 08:09:50;;;;;;;5.95;2.50;;;;;;;12.92;52.11;99433.00;7389659;19;19999;-57
2022/09/27 08:12:15;;;;;;;6.18;2.08;;;;;;;13.03;52.08;99433.03;7387884;19;20015;-57
2022/09/27 08:14:41;;;;;;;7.50;2.15;;;;;;;12.93;52.36;99431.84;7390931;19;20008;-57
2022/09/27 08:17:10;;;;;;;5.28;1.80;;;;;;;12.94;52.55;99435.34;7390435;19;20025;-57
2022/09/27 08:19:39;;;;;;;2.22;1.17;;;;;;;13.07;52.08;99433.78;7391658;19;20002;-57
2022/09/27 08:22:08;;;;;;;4.50;1.48;;;;;;;12.93;52.14;99440.06;7388577;19;20006;-57
2022/09/27 08:24:34;;;;;;;7.07;1.40;;;;;;;12.85;52.45;99454.88;7390565;19;20017;-58
2022/09/27 08:27:01;;;;;;;4.40;1.00;;;;;;;12.73;52.55;99455.28;7390821;19;20003;-57
2022/09/27 08:29:26;;;;;;;6.55;1.30;;;;;;;12.80;52.65;99463.50;7391148;19;19999;-57
2022/09/27 08:31:53;;;;;;;3.03;0.93;;;;;;;12.66;52.72;99457.97;7387478;19;20002;-57
2022/09/27 08:34:29;;;;;;;3.20;0.90;;;;;;;12.92;52.46;99457.66;7390182;19;20034;-59
2022/09/27 08:36:55;;;;;;;5.25;1.15;;;;;;;13.05;52.18;99465.50;7388924;19;20015;-58
2022/09/27 08:39:21;;;;;;;3.90;1.30;;;;;;;12.86;52.42;99469.34;7389841;19;20477;-58
2022/09/27 08:42:18;;;;;;;4.47;0.73;;;;;;;12.78;52.04;99466.63;7388717;19;20018;-58
2022/09/27 08:44:59;;;;;;;4.82;0.93;;;;;;;12.84;52.28;99469.78;7390768;19;20011;-57
2022/09/27 08:47:30;;;;;;;3.30;0.75;;;;;;;12.74;52.77;99470.50;7390471;19;20032;-57
2022/09/27 08:50:14;;;;;;;3.83;0.82;;;;;;;12.68;52.76;99472.09;7390981;19;20446;-57
2022/09/27 08:52:47;;;;;;;2.47;0.80;;;;;;;12.65;52.79;99472.84;7390165;19;20500;-57
2022/09/27 08:55:31;;;;;;;4.15;1.10;;;;;;;12.75;52.71;99472.84;7390381;19;20003;-58
2022/09/27 08:57:58;;;;;;;3.40;0.70;;;;;;;12.96;52.24;99477.63;7390056;19;20007;-58
2022/09/27 09:00:26;;;;;;;4.15;0.80;;;;;;;12.87;52.21;99474.47;7386554;19;20034;-58
2022/09/27 09:02:52;;;;;;;6.55;1.33;;;;;;;13.04;52.22;99472.16;7389870;19;20066;-58
2022/09/27 09:05:33;;;;;;;2.30;1.00;;;;;;;12.96;52.03;99483.09;7388039;19;20019;-58
2022/09/27 09:08:10;;;;;;;6.22;1.10;;;;;;;13.19;51.47;99473.72;7389589;19;20006;-58
2022/09/27 09:13:36;;;;;;;5.80;1.30;;;;;;;13.27;51.77;99480.75;7390922;19;20011;-58
2022/09/27 09:16:16;;;;;;;4.07;0.90;;;;;;;13.24;51.22;99492.53;7396509;19;20013;-58
2022/09/27 09:18:42;;;;;;;2.13;0.77;;;;;;;13.26;51.36;99481.94;7394303;19;19991;-59
2022/09/27 09:21:44;;;;;;;2.47;0.70;;;;;;;12.98;51.83;99485.47;7394316;19;19998;-58
2022/09/27 09:24:21;;;;;;;5.70;0.80;;;;;;;13.33;51.31;99487.41;7397209;19;20457;-58
2022/09/27 09:26:56;;;;;;;4.93;1.00;;;;;;;13.36;50.96;99490.53;7394407;19;19995;-58
2022/09/27 09:29:43;;;;;;;2.00;0.90;;;;;;;13.10;51.47;99506.22;7394760;19;20003;-58
2022/09/27 09:32:21;;;;;;;7.20;1.00;;;;;;;13.01;51.73;99511.25;7394151;19;19998;-58
2022/09/27 09:34:53;;;;;;;2.30;0.90;;;;;;;12.96;51.80;99512.47;7395830;19;19997;-58
2022/09/27 09:37:23;;;;;;;4.13;1.00;;;;;;;12.91;52.01;99508.13;7395561;19;20018;-57
2022/09/27 09:39:55;;;;;;;4.95;0.85;;;;;;;12.89;51.88;99505.00;7396103;19;20071;-58
2022/09/27 09:42:31;;;;;;;2.63;0.70;;;;;;;12.78;52.03;99504.16;7392889;19;20001;-57
2022/09/27 09:44:56;;;;;;;3.75;1.10;;;;;;;12.80;51.94;99507.28;7395880;19;20002;-57
2022/09/27 09:47:41;;;;;;;3.78;0.80;;;;;;;12.80;52.17;99507.28;7395683;19;19990;-58
2022/09/27 09:50:15;;;;;;;;;;;;;;;12.71;52.19;99515.13;7393417;19;19991;-57
2022/09/27 09:52:47;;;;;;;6.63;1.20;;;;;;;12.94;52.05;99515.59;7393767;19;19911;-58
2022/09/27 09:55:19;;;;;;;4.30;1.23;;;;;;;12.79;52.09;99516.66;7395894;19;20119;-58
2022/09/27 09:57:51;;;;;;;4.82;1.15;;;;;;;12.88;51.86;99522.59;7394922;19;20010;-58
2022/09/27 10:00:18;;;;;;;2.90;0.93;;;;;;;12.85;51.94;99514.34;7394377;19;19995;-58
2022/09/27 10:02:45;;;;;;;4.22;1.00;;;;;;;13.01;51.72;99522.22;7394925;19;20469;-57
2022/09/27 10:05:18;;;;;;;5.65;1.13;;;;;;;12.72;51.57;99524.88;7395160;19;19998;-58
2022/09/27 10:07:46;;;;;;;4.40;1.20;;;;;;;12.84;51.88;99531.94;7395968;19;20030;-58
2022/09/27 10:10:16;;;;;;;5.43;1.20;;;;;;;12.82;51.65;99529.59;7394533;19;19998;-59
2022/09/27 10:12:43;;;;;;;5.13;1.38;;;;;;;12.90;51.81;99527.69;7394097;19;20083;-58
2022/09/27 10:15:20;;;;;;;5.80;1.52;;;;;;;12.87;51.63;99531.97;7394493;19;20508;-58
2022/09/27 10:17:49;;;;;;;3.53;0.95;;;;;;;12.85;52.04;99531.56;7393590;19;20003;-58
2022/09/27 10:20:45;;;;;;;5.43;1.48;;;;;;;12.79;51.73;99533.09;7392540;19;20006;-58
2022/09/27 10:23:18;;;;;;;4.70;1.20;;;;;;;12.88;51.81;99524.56;7394143;19;20034;-58
2022/09/27 10:25:52;;;;;;;3.88;1.20;;;;;;;12.98;51.39;99529.28;7391256;19;20378;-58
2022/09/27 10:28:26;;;;;;;;;;;;;;;12.74;52.38;99530.75;7395212;19;20018;-58
2022/09/27 10:30:57;;;;;;;5.13;1.13;;;;;;;12.89;52.13;99535.13;7393092;19;19919;-58
2022/09/27 10:33:23;;;;;;;5.95;1.20;;;;;;;12.96;52.09;99529.66;7394383;19;20010;-58
2022/09/27 10:35:49;;;;;;;4.43;1.00;;;;;;;13.01;51.92;99533.19;7394705;19;19999;-58
2022/09/27 10:38:15;;;;;;;5.13;1.30;;;;;;;12.96;51.93;99532.41;7393377;19;19995;-58
2022/09/27 10:40:42;;;;;;;5.05;1.05;;;;;;;12.95;51.68;99536.31;7393780;19;20434;-58
2022/09/27 10:43:23;;;;;;;4.03;1.00;;;;;;;13.05;51.39;99539.47;7394004;19;20073;-58
2022/09/27 10:45:49;;;;;;;2.22;0.70;;;;;;;13.01;51.72;99533.19;7394094;19;20006;-58
2022/09/27 10:48:22;;;;;;;5.32;0.85;;;;;;;13.01;51.69;99538.66;7394052;19;20075;-58
2022/09/27 10:51:20;;;;;;;4.28;1.05;;;;;;;13.18;51.62;99532.44;7392941;19;20347;-58
2022/09/27 10:53:46;;;;;;;4.03;1.25;;;;;;;13.10;51.79;99541.81;7393956;19;20002;-58
2022/09/27 10:56:32;;;;;;;3.88;0.90;;;;;;;13.14;51.81;99537.91;7391938;19;20006;-57
2022/09/27 10:58:59;;;;;;;4.93;1.23;;;;;;;13.08;51.68;99538.69;7394946;19;20201;-57
2022/09/27 11:01:26;;;;;;;4.53;1.00;;;;;;;13.20;51.78;99546.53;7392232;19;20006;-57
2022/09/27 11:03:56;;;;;;;5.82;1.30;;;;;;;13.19;51.91;99544.94;7393949;19;19999;-58
2022/09/27 11:06:21;;;;;;;6.72;1.35;;;;;;;13.27;51.38;99546.53;7392698;19;20007;-57
2022/09/27 11:08:49;;;;;;;4.35;1.20;;;;;;;13.08;51.92;99542.19;7392895;19;20074;-57
2022/09/27 11:11:20;;;;;;;4.70;1.27;;;;;;;13.11;51.64;99546.91;7390906;19;20074;-57
2022/09/27 11:14:04;;;;;;;5.32;1.20;;;;;;;13.24;51.56;99547.31;7390113;19;20003;-57
2022/09/27 11:16:37;;;;;;;4.45;1.10;;;;;;;13.20;51.79;99545.75;7391324;19;19994;-57
2022/09/27 11:19:38;;;;;;;3.38;1.50;;;;;;;13.07;51.90;99542.59;7392337;19;19998;-57
2022/09/27 11:22:42;;;;;;;4.75;1.67;;;;;;;13.03;52.21;99552.78;7389174;19;19998;-57
2022/09/27 11:25:38;;;;;;;4.85;1.77;;;;;;;13.03;52.06;99550.03;7393312;19;20014;-58
2022/09/27 11:28:38;;;;;;;5.30;1.20;;;;;;;13.03;52.00;99553.53;7390405;19;20022;-57
2022/09/27 11:31:11;;;;;;;5.65;1.25;;;;;;;13.13;51.96;99546.53;7391873;19;20013;-57
2022/09/27 11:34:02;;;;;;;4.15;1.17;;;;;;;13.22;51.84;99544.16;7392923;19;20011;-58
2022/09/27 11:37:02;;;;;;;8.23;1.67;;;;;;;13.18;52.20;99537.91;7390571;19;20028;-58
2022/09/27 11:39:44;;;;;;;4.75;1.40;;;;;;;13.17;51.96;99535.56;7392164;19;19998;-58
2022/09/27 11:42:28;;;;;;;10.18;1.80;;;;;;;13.27;51.67;99546.53;7389797;19;20695;-57
2022/09/27 11:45:14;;;;;;;9.50;1.50;;;;;;;13.29;51.95;99552.41;7390327;19;19999;-57
2022/09/27 11:47:53;;;;;;;5.03;1.30;;;;;;;13.46;51.48;99547.31;7391845;19;20005;-57
2022/09/27 11:50:42;;;;;;;8.85;1.67;;;;;;;13.43;51.60;99542.63;7392045;19;20007;-57
2022/09/27 11:53:27;;;;;;;4.90;1.73;;;;;;;13.44;51.45;99544.19;7391512;19;20348;-57
2022/09/27 11:56:01;;;;;;;5.97;1.73;;;;;;;13.50;51.36;99539.88;7390633;19;20101;-57